Flight Track Log - Related Links

Times and Time Zones

All times are in EDT time to prevent confusion due to time zone crossing. See the RPA3253 flight status page for this flight to view local times or setup timezone preferences in your user account.

Time Position Orientation Groundspeed Altitude Reporting Facility
EDT Latitude Longitude Course Direction KTS MPH feet Rate Location/Type
07:29PM 42.7694 -73.8119 169° South 141 162 1,300  Level Boston Center
07:30PM 42.7775 -73.8206 322° Northwest 145 167 1,800 1,519 Climbing Boston Center
07:31PM 42.8061 -73.8719 307° West 189 217 3,300 1,839 Climbing Boston Center
07:32PM 42.4382 -74.1391 180° South  Level Estimated
07:32PM 42.8489 -73.9439 309° West 231 266 5,600  Level Boston Center
07:33PM 42.3603 -74.2228 170° South  Level Estimated
07:33PM 42.8750 -74.0239 294° West 236 272 8,700  Level Boston Center
07:34PM 42.2824 -74.3064 169° South  Level Estimated
07:34PM 42.8611 -74.1283 260° West 259 298 11,600  Level Boston Center
07:35PM 42.8061 -74.1778 213° Southwest 270 311 14,000 2,500 Climbing Boston Center
07:36PM 42.7081 -74.1806 181° South 281 323 16,600 2,350 Climbing Boston Center
07:37PM 42.6253 -74.1472 163° South 317 365 18,700 2,050 Climbing Boston Center
07:38PM 42.5342 -74.0911 156° South 339 390 20,700 1,900 Climbing Boston Center
07:39PM 42.4392 -74.0294 154° Southeast 355 409 22,500 1,650 Climbing Boston Center
07:40PM 42.3381 -73.9653 155° Southeast 381 438 24,000 1,450 Climbing Boston Center
07:41PM 42.2347 -73.8983 154° Southeast 402 463 25,400 1,450 Climbing Boston Center
07:42PM 42.1269 -73.8425 159° South 407 468 26,900 1,500 Climbing Boston Center
07:43PM 42.0247 -73.8681 191° South 376 433 28,400 1,450 Climbing Boston Center
07:44PM 41.9261 -73.9133 199° South 369 425 29,800 1,164 Climbing Boston Center
07:46PM 41.6897 -74.0100 197° South 368 423 32,300 1,025 Climbing New York Center
07:47PM 41.5928 -74.0525 198° South 368 423 33,200 915 Climbing New York Center
07:48PM 41.4981 -74.0975 200° South 368 423 34,100 694 Climbing New York Center
07:49PM 41.3989 -74.1397 198° South 373 429 34,600 496 Climbing New York Center
07:50PM 41.2956 -74.1869 199° South 384 442 35,100 504 Climbing New York Center
07:51PM 41.1903 -74.2258 196° South 394 453 35,600 450 Climbing New York Center
07:52PM 41.0847 -74.2725 198° South 400 460 36,000 198 Climbing New York Center
07:53PM 40.9811 -74.3194 199° South 400 460 36,000  Level New York Center
07:54PM 40.8736 -74.3633 197° South 400 460 36,000  Level New York Center
07:55PM 40.7781 -74.4214 205° Southwest 400 460 36,000  Level New York Center
07:56PM 40.7125 -74.5244 230° Southwest 366 421 36,000  Level New York Center
07:57PM 40.6483 -74.6331 232° Southwest 371 427 36,000  Level New York Center
07:58PM 40.5844 -74.7389 232° Southwest 382 440 36,000  Level New York Center
07:59PM 40.5144 -74.8411 228° Southwest 382 440 36,000  Level New York Center
08:00PM 40.4464 -74.9408 228° Southwest 382 440 36,000  Level New York Center
08:01PM 40.3806 -75.0294 226° Southwest 377 434 36,000  Level New York Center
08:02PM 40.3100 -75.1314 228° Southwest 377 434 36,000  Level New York Center
08:03PM 40.2375 -75.2328 227° Southwest 377 434 36,000  Level New York Center
08:04PM 40.1650 -75.3342 227° Southwest 382 440 36,000  Level New York Center
08:05PM 40.0944 -75.4325 227° Southwest 382 440 36,000  Level New York Center
08:06PM 40.0217 -75.5333 227° Southwest 382 440 36,000  Level New York Center
08:07PM 39.9508 -75.6314 227° Southwest 382 440 36,000  Level New York Center
08:08PM 39.8819 -75.7322 228° Southwest 382 440 36,000  Level New York Center
08:10PM 39.7275 -75.9800 231° Southwest 382 440 36,000  Level Washington Center
08:11PM 39.6606 -76.0847 230° Southwest 375 432 36,000  Level Washington Center
08:12PM 39.5975 -76.1867 231° Southwest 375 432 36,000  Level Washington Center
08:13PM 39.5283 -76.2911 229° Southwest 375 432 36,000  Level Washington Center
08:14PM 39.4608 -76.3925 229° Southwest 375 432 36,000  Level Washington Center
08:15PM 39.3936 -76.4939 229° Southwest 375 432 36,000  Level Washington Center
08:16PM 39.3281 -76.5950 230° Southwest 375 432 36,000  Level Washington Center
08:17PM 39.2647 -76.6986 232° Southwest 375 432 36,000  Level Washington Center
08:18PM 39.1992 -76.7967 229° Southwest 375 432 36,000  Level Washington Center
08:19PM 39.1314 -76.9028 231° Southwest 375 432 36,000  Level Washington Center
08:20PM 39.0656 -77.0058 231° Southwest 375 432 36,000  Level Washington Center
08:21PM 38.9872 -77.1006 223° Southwest 375 432 36,000  Level Washington Center
08:22PM 38.9069 -77.1869 220° Southwest 375 432 36,000  Level Washington Center
08:23PM 38.8244 -77.2783 221° Southwest 386 444 36,000  Level Washington Center
08:24PM 38.7589 -77.3486 220° Southwest 391 450 36,000  Level Washington Center
08:25PM 38.6697 -77.4450 220° Southwest 391 450 36,000  Level Washington Center
08:26PM 38.5892 -77.5358 221° Southwest 386 444 36,000  Level Washington Center
08:27PM 38.5064 -77.6267 221° Southwest 386 444 36,000  Level Washington Center
08:28PM 38.4278 -77.7119 220° Southwest 386 444 36,000  Level Washington Center
08:29PM 38.3469 -77.7969 220° Southwest 379 436 36,000  Level Washington Center
08:30PM 38.2681 -77.8847 221° Southwest 379 436 36,000  Level Washington Center
08:31PM 38.1872 -77.9719 220° Southwest 384 442 36,000  Level Washington Center
08:32PM 38.1061 -78.0564 219° Southwest 384 442 36,000  Level Washington Center
08:33PM 38.0272 -78.1461 222° Southwest 384 442 36,000  Level Washington Center
08:34PM 37.9500 -78.2461 226° Southwest 374 430 36,000  Level Washington Center
08:35PM 37.8811 -78.3439 228° Southwest 374 430 36,000  Level Washington Center
08:36PM 37.8119 -78.4439 229° Southwest 374 430 36,000  Level Washington Center
08:37PM 37.7450 -78.5436 230° Southwest 380 437 36,000  Level Washington Center
08:38PM 37.6733 -78.6458 228° Southwest 380 437 36,000  Level Washington Center
08:39PM 37.6022 -78.7425 227° Southwest 380 437 36,000  Level Washington Center
08:40PM 37.5328 -78.8419 229° Southwest 380 437 36,000  Level Washington Center
08:41PM 37.4697 -78.9361 230° Southwest 366 421 36,000  Level Washington Center
08:42PM 37.4025 -79.0244 226° Southwest 366 421 36,000  Level Washington Center
08:43PM 37.3392 -79.1208 230° Southwest 371 427 36,000  Level Washington Center
08:44PM 37.2675 -79.2169 227° Southwest 377 434 36,000 -496 Level Washington Center
08:45PM 37.1817 -79.2961 216° Southwest 383 441 35,000 -992 Descending Washington Center
08:46PM 37.0853 -79.3775 214° Southwest 388 447 34,000 -966 Descending Washington Center
08:47PM 37.0017 -79.4461 213° Southwest 388 447 33,100 -1,008 Descending Washington Center
08:48PM 36.9008 -79.5269 213° Southwest 394 453 32,000 -541 Descending Washington Center
08:49PM 36.8172 -79.5978 214° Southwest 406 467 32,000 -555 Level Washington Center
08:50PM 36.7122 -79.6831 213° Southwest 406 467 30,900 -1,613 Descending Washington Center
08:51PM 36.6175 -79.7636 214° Southwest 406 467 28,800 -2,088 Descending Washington Center
08:53PM 36.4372 -79.9097 213° Southwest 419 482 24,600 -2,067 Descending Atlanta Center
08:54PM 36.3478 -79.9764 211° Southwest 391 450 22,600 -1,300 Descending Atlanta Center
08:55PM 36.2686 -80.0447 215° Southwest 365 420 22,000 -300 Descending Atlanta Center
08:56PM 36.1875 -80.1131 214° Southwest 359 413 22,000 -800 Level Atlanta Center
08:57PM 36.1000 -80.1892 215° Southwest 359 413 20,400 -1,850 Descending Atlanta Center
08:58PM 36.0250 -80.2569 216° Southwest 346 398 18,300 -2,069 Descending Atlanta Center
08:59PM 35.9967 -80.2839 218° Southwest 331 381 17,400 -2,000 Descending Atlanta Center
08:59PM 35.9539 -80.3142 210° Southwest 319 367 16,400 -1,737 Descending Atlanta Center
09:01PM 35.8478 -80.3964 212° Southwest  Level FlightAware Approximate
09:01PM 35.8156 -80.4356 212° Southwest 299 344 13,000  Level Atlanta Center
09:02PM 35.7422 -80.4925 212° Southwest 312 359 12,400 -1,041 Descending Atlanta Center
09:03PM 35.6750 -80.5492 214° Southwest 302 348 10,900 -1,525 Descending Atlanta Center
09:04PM 35.6056 -80.6083 215° Southwest 293 337 9,300 -1,538 Descending Atlanta Center
09:05PM 35.5828 -80.6911 251° West 281 323 7,900 -1,513 Descending Atlanta Center
09:06PM 35.5497 -80.7767 245° Southwest 276 318 6,400 -1,537 Descending Atlanta Center
09:07PM 35.5164 -80.8569 243° Southwest 268 308 4,800 -1,033 Descending Atlanta Center
09:08PM 35.4869 -80.9244 242° Southwest 207 238 4,300 -639 Descending Atlanta Center
09:09PM 35.4333 -80.9572 206° Southwest 203 234 3,500 -609 Descending Atlanta Center
09:10PM 35.3711 -80.9672 187° South 197 227 3,000 -448 Descending Atlanta Center

Login

Don't have an account? Register now (free) for customized features, flight alerts, and more!